createdAt,value
2019-06-01T00:01:31.605Z,101756.55
2019-06-01T00:04:00.485Z,101758.09
2019-06-01T00:06:29.015Z,101754.77
2019-06-01T00:08:57.451Z,101761.53
2019-06-01T00:11:25.925Z,101749.28
2019-06-01T00:13:54.722Z,101747.62
2019-06-01T00:16:23.218Z,101755.53
2019-06-01T00:18:51.612Z,101749.36
2019-06-01T00:21:20.012Z,101748.53
2019-06-01T00:23:48.766Z,101748.77
2019-06-01T00:26:17.425Z,101750.95
2019-06-01T00:28:46.131Z,101749.28
2019-06-01T00:31:14.917Z,101748.77
2019-06-01T00:33:43.415Z,101753.34
2019-06-01T00:36:11.844Z,101751.48
2019-06-01T00:38:41.508Z,101748.47
2019-06-01T00:41:10.100Z,101741.70
2019-06-01T00:43:38.559Z,101745.66
2019-06-01T00:46:06.971Z,101749.70
2019-06-01T00:48:35.363Z,101745.66
2019-06-01T00:51:04.110Z,101739.94
2019-06-01T00:53:32.485Z,101738.27
2019-06-01T00:56:00.973Z,101740.73
2019-06-01T00:58:29.367Z,101742.01
2019-06-01T01:00:57.747Z,101738.98
2019-06-01T01:03:26.142Z,101741.17
2019-06-01T01:05:54.897Z,101746.02
2019-06-01T01:08:23.454Z,101742.98
2019-06-01T01:10:53.079Z,101739.64
2019-06-01T01:13:23.316Z,101740.54
2019-06-01T01:15:52.108Z,101745.11
2019-06-01T01:18:20.553Z,101741.91
2019-06-01T01:20:50.053Z,101744.20
2019-06-01T01:23:18.644Z,101746.48
2019-06-01T01:25:48.116Z,101744.42
2019-06-01T01:28:17.284Z,101747.33
2019-06-01T01:31:01.554Z,101741.09
2019-06-01T01:33:15.952Z,101747.33
2019-06-01T01:35:44.404Z,101739.66
2019-06-01T01:38:13.156Z,101741.51
2019-06-01T01:40:41.546Z,101736.74
2019-06-01T01:43:09.998Z,101728.72
2019-06-01T01:45:38.542Z,101732.95
2019-06-01T01:48:06.920Z,101724.77
2019-06-01T01:50:35.402Z,101729.55
2019-06-01T01:53:03.778Z,101731.34
2019-06-01T01:55:32.348Z,101726.54
2019-06-01T01:58:01.630Z,101721.89
2019-06-01T02:00:42.353Z,101722.72
2019-06-01T02:03:11.503Z,101724.08
2019-06-01T02:05:40.290Z,101722.72
2019-06-01T02:08:09.750Z,101716.36
2019-06-01T02:10:38.282Z,101718.03
2019-06-01T02:13:07.111Z,101717.72
2019-06-01T02:15:36.642Z,101719.39
2019-06-01T02:18:05.997Z,101715.92
2019-06-01T02:20:34.768Z,101710.31
2019-06-01T02:23:03.729Z,101708.94
2019-06-01T02:25:32.258Z,101710.33
2019-06-01T02:28:01.408Z,101712.81
2019-06-01T02:30:30.263Z,101707.87
2019-06-01T02:33:00.092Z,101714.11
2019-06-01T02:35:28.803Z,101711.30
2019-06-01T02:37:58.575Z,101706.55
2019-06-01T02:40:28.117Z,101703.50
2019-06-01T02:42:57.196Z,101702.98
2019-06-01T02:45:26.183Z,101699.03
2019-06-01T02:47:55.342Z,101697.75
2019-06-01T02:50:24.069Z,101698.04
2019-06-01T02:52:52.507Z,101695.22
2019-06-01T02:55:21.192Z,101703.72
2019-06-01T02:57:49.656Z,101700.87
2019-06-01T03:00:20.646Z,101700.58
2019-06-01T03:02:49.098Z,101696.88
2019-06-01T03:05:19.404Z,101695.53
2019-06-01T03:07:48.221Z,101697.81
2019-06-01T03:10:16.702Z,101703.63
2019-06-01T03:12:45.798Z,101701.25
2019-06-01T03:15:15.598Z,101701.17
2019-06-01T03:17:46.847Z,101707.91
2019-06-01T03:20:15.673Z,101701.04
2019-06-01T03:22:44.542Z,101700.53
2019-06-01T03:25:13.227Z,101706.52
2019-06-01T03:27:43.556Z,101699.14
2019-06-01T03:30:15.430Z,101698.30
2019-06-01T03:32:43.001Z,101695.24
2019-06-01T03:35:11.640Z,101699.05
2019-06-01T03:37:40.049Z,101698.54
2019-06-01T03:40:18.561Z,101694.41
2019-06-01T03:42:39.057Z,101690.45
2019-06-01T03:45:07.681Z,101696.55
2019-06-01T03:47:36.105Z,101697.56
2019-06-01T03:50:06.934Z,101700.41
2019-06-01T03:52:35.430Z,101705.28
2019-06-01T03:55:05.925Z,101709.78
2019-06-01T03:57:34.344Z,101702.95
2019-06-01T04:00:03.467Z,101710.63
2019-06-01T04:02:33.366Z,101704.20
2019-06-01T04:05:03.302Z,101707.00
2019-06-01T04:07:32.243Z,101701.55
2019-06-01T04:10:01.659Z,101707.59
2019-06-01T04:12:30.402Z,101697.60
2019-06-01T04:14:59.015Z,101703.08
2019-06-01T04:17:27.746Z,101712.98
2019-06-01T04:19:56.147Z,101706.56
2019-06-01T04:22:24.606Z,101707.42
2019-06-01T04:24:53.069Z,101716.80
2019-06-01T04:27:21.451Z,101710.99
2019-06-01T04:29:49.933Z,101714.66
2019-06-01T04:32:18.312Z,101715.94
2019-06-01T04:34:46.762Z,101715.68
2019-06-01T04:37:16.808Z,101713.02
2019-06-01T04:39:45.273Z,101713.70
2019-06-01T04:42:13.963Z,101719.52
2019-06-01T04:44:42.549Z,101718.95
2019-06-01T04:47:12.445Z,101718.56
2019-06-01T04:49:41.086Z,101723.73
2019-06-01T04:52:11.790Z,101721.52
2019-06-01T04:54:39.633Z,101720.75
2019-06-01T04:57:08.924Z,101722.67
2019-06-01T04:59:37.976Z,101724.89
2019-06-01T05:02:07.345Z,101728.64
2019-06-01T05:04:36.179Z,101724.71
2019-06-01T05:07:05.066Z,101728.69
2019-06-01T05:09:33.682Z,101730.68
2019-06-01T05:12:02.064Z,101726.20
2019-06-01T05:14:30.830Z,101730.50
2019-06-01T05:16:59.216Z,101724.89
2019-06-01T05:19:27.659Z,101734.06
2019-06-01T05:21:56.072Z,101737.61
2019-06-01T05:24:24.530Z,101738.00
2019-06-01T05:26:52.939Z,101742.37
2019-06-01T05:29:21.397Z,101742.78
2019-06-01T05:31:49.793Z,101739.16
2019-06-01T05:34:18.599Z,101742.09
2019-06-01T05:36:47.370Z,101740.14
2019-06-01T05:39:16.416Z,101748.52
2019-06-01T05:41:44.849Z,101736.48
2019-06-01T05:44:13.294Z,101741.06
2019-06-01T05:46:41.765Z,101743.05
2019-06-01T05:49:12.043Z,101737.02
2019-06-01T05:51:40.830Z,101744.20
2019-06-01T05:54:10.377Z,101743.05
2019-06-01T05:56:39.050Z,101743.58
2019-06-01T05:59:07.811Z,101738.62
2019-06-01T06:01:36.179Z,101741.09
2019-06-01T06:04:04.724Z,101742.98
2019-06-01T06:06:33.106Z,101746.30
2019-06-01T06:09:01.595Z,101746.22
2019-06-01T06:11:30.045Z,101744.23
2019-06-01T06:13:58.498Z,101749.28
2019-06-01T06:16:26.944Z,101745.03
2019-06-01T06:18:55.322Z,101749.28
2019-06-01T06:21:23.726Z,101751.16
2019-06-01T06:23:52.299Z,101754.92
2019-06-01T06:26:22.363Z,101748.56
2019-06-01T06:28:50.807Z,101745.34
2019-06-01T06:31:19.296Z,101743.27
2019-06-01T06:33:56.410Z,101749.20
2019-06-01T06:36:18.201Z,101749.08
2019-06-01T06:38:46.736Z,101750.95
2019-06-01T06:41:16.119Z,101756.16
2019-06-01T06:43:45.013Z,101749.07
2019-06-01T06:46:14.457Z,101755.91
2019-06-01T06:48:43.057Z,101751.71
2019-06-01T06:51:11.776Z,101752.88
2019-06-01T06:53:40.254Z,101754.23
2019-06-01T06:56:08.622Z,101756.53
2019-06-01T06:58:37.007Z,101748.81
2019-06-01T07:01:05.892Z,101751.58
2019-06-01T07:03:34.347Z,101752.84
2019-06-01T07:06:02.743Z,101749.02
2019-06-01T07:08:31.216Z,101750.16
2019-06-01T07:10:59.616Z,101749.94
2019-06-01T07:13:27.997Z,101745.08
2019-06-01T07:15:56.537Z,101748.34
2019-06-01T07:18:25.778Z,101748.52
2019-06-01T07:20:54.548Z,101753.58
2019-06-01T07:23:23.866Z,101751.31
2019-06-01T07:25:52.352Z,101757.04
2019-06-01T07:28:21.984Z,101751.34
2019-06-01T07:30:50.928Z,101747.63
2019-06-01T07:33:20.471Z,101744.95
2019-06-01T07:35:50.289Z,101741.83
2019-06-01T07:38:20.237Z,101747.23
2019-06-01T07:40:48.720Z,101747.47
2019-06-01T07:43:17.136Z,101747.75
2019-06-01T07:45:45.907Z,101743.80
2019-06-01T07:48:14.381Z,101747.08
2019-06-01T07:50:42.787Z,101743.08
2019-06-01T07:53:11.246Z,101748.44
2019-06-01T07:55:39.886Z,101749.64
2019-06-01T07:58:08.276Z,101750.27
2019-06-01T08:00:36.814Z,101750.64
2019-06-01T08:03:06.227Z,101757.56
2019-06-01T08:05:35.053Z,101757.20
2019-06-01T08:08:04.174Z,101760.73
2019-06-01T08:10:32.624Z,101754.39
2019-06-01T08:13:02.626Z,101756.48
2019-06-01T08:15:31.845Z,101756.50
2019-06-01T08:18:00.414Z,101752.44
2019-06-01T08:20:30.244Z,101754.69
2019-06-01T08:22:58.822Z,101760.41
2019-06-01T08:25:28.588Z,101753.95
2019-06-01T08:27:57.539Z,101753.81
2019-06-01T08:30:26.420Z,101755.31
2019-06-01T08:32:55.373Z,101751.25
2019-06-01T08:35:24.859Z,101744.58
2019-06-01T08:37:53.416Z,101742.30
2019-06-01T08:40:23.282Z,101744.70
2019-06-01T08:42:51.891Z,101739.08
2019-06-01T08:45:20.386Z,101736.29
2019-06-01T08:47:48.792Z,101744.18
2019-06-01T08:50:17.685Z,101736.89
2019-06-01T08:52:46.087Z,101734.67
2019-06-01T08:55:14.549Z,101727.69
2019-06-01T08:57:44.344Z,101727.90
2019-06-01T09:00:13.270Z,101719.50
2019-06-01T09:02:41.805Z,101722.20
2019-06-01T09:05:23.293Z,101719.89
2019-06-01T09:07:40.914Z,101716.03
2019-06-01T09:10:10.654Z,101706.19
2019-06-01T09:12:39.035Z,101700.17
2019-06-01T09:15:09.805Z,101701.39
2019-06-01T09:17:38.310Z,101691.30
2019-06-01T09:20:07.491Z,101702.03
2019-06-01T09:22:35.952Z,101699.54
2019-06-01T09:25:05.041Z,101698.91
2019-06-01T09:27:33.960Z,101701.17
2019-06-01T09:30:02.569Z,101703.37
2019-06-01T09:32:32.241Z,101695.36
2019-06-01T09:35:01.109Z,101701.80
2019-06-01T09:37:30.534Z,101697.25
2019-06-01T09:39:59.120Z,101702.05
2019-06-01T09:42:28.778Z,101699.30
2019-06-01T09:44:57.319Z,101698.35
2019-06-01T09:47:26.975Z,101697.06
2019-06-01T09:49:56.198Z,101701.90
2019-06-01T09:52:24.990Z,101696.02
2019-06-01T09:54:53.470Z,101694.64
2019-06-01T09:57:21.945Z,101695.20
2019-06-01T09:59:50.394Z,101692.14
2019-06-01T10:02:18.903Z,101695.72
2019-06-01T10:04:47.432Z,101694.73
2019-06-01T10:07:15.905Z,101694.73
2019-06-01T10:09:44.320Z,101690.53
2019-06-01T10:12:12.833Z,101691.84
2019-06-01T10:14:42.270Z,101689.72
2019-06-01T10:17:11.004Z,101693.83
2019-06-01T10:19:39.449Z,101693.16
2019-06-01T10:22:07.871Z,101674.73
2019-06-01T10:24:37.215Z,101670.97
2019-06-01T10:27:05.851Z,101667.69
2019-06-01T10:29:34.706Z,101671.39
2019-06-01T10:32:03.500Z,101669.31
2019-06-01T10:34:31.929Z,101662.03
2019-06-01T10:37:00.376Z,101666.09
2019-06-01T10:39:29.342Z,101654.56
2019-06-01T10:41:57.963Z,101655.59
2019-06-01T10:44:26.373Z,101654.95
2019-06-01T10:46:57.767Z,101647.48
2019-06-01T10:49:26.275Z,101648.95
2019-06-01T10:51:54.715Z,101638.48
2019-06-01T10:54:23.161Z,101635.30
2019-06-01T10:56:51.942Z,101637.48
2019-06-01T10:59:20.842Z,101640.87
2019-06-01T11:01:49.221Z,101636.38
2019-06-01T11:04:17.813Z,101631.50
2019-06-01T11:06:48.650Z,101628.59
2019-06-01T11:09:16.594Z,101623.98
2019-06-01T11:11:44.956Z,101621.81
2019-06-01T11:14:13.819Z,101616.72
2019-06-01T11:16:43.702Z,101611.64
2019-06-01T11:19:12.752Z,101618.37
2019-06-01T11:21:41.727Z,101613.55
2019-06-01T11:24:10.269Z,101622.91
2019-06-01T11:26:39.723Z,101611.23
2019-06-01T11:29:08.602Z,101613.05
2019-06-01T11:31:38.323Z,101610.65
2019-06-01T11:34:06.916Z,101608.69
2019-06-01T11:36:36.196Z,101606.02
2019-06-01T11:39:06.643Z,101601.70
2019-06-01T11:41:36.311Z,101601.97
2019-06-01T11:44:04.966Z,101600.25
2019-06-01T11:46:34.646Z,101596.14
2019-06-01T11:49:03.241Z,101589.00
2019-06-01T11:51:31.719Z,101580.95
2019-06-01T11:54:00.236Z,101588.57
2019-06-01T11:56:28.697Z,101584.22
2019-06-01T11:58:57.105Z,101576.67
2019-06-01T12:01:25.580Z,101575.79
2019-06-01T12:03:53.959Z,101575.55
2019-06-01T12:06:22.427Z,101579.36
2019-06-01T12:08:50.831Z,101575.76
2019-06-01T12:11:20.183Z,101569.84
2019-06-01T12:13:48.557Z,101568.55
2019-06-01T12:16:17.341Z,101569.36
2019-06-01T12:18:46.878Z,101573.34
2019-06-01T12:21:15.442Z,101560.70
2019-06-01T12:23:43.820Z,101545.84
2019-06-01T12:26:12.270Z,101535.48
2019-06-01T12:28:41.586Z,101526.12
2019-06-01T12:31:10.144Z,101530.61
2019-06-01T12:33:39.802Z,101526.81
2019-06-01T12:36:08.439Z,101528.05
2019-06-01T12:38:38.472Z,101529.34
2019-06-01T12:41:06.949Z,101522.67
2019-06-01T12:43:35.418Z,101522.11
2019-06-01T12:46:07.706Z,101509.46
2019-06-01T12:48:33.897Z,101518.02
2019-06-01T12:51:02.311Z,101505.15
2019-06-01T12:53:30.773Z,101503.41
2019-06-01T12:55:59.249Z,101497.58
2019-06-01T12:58:27.656Z,101489.77
2019-06-01T13:00:56.038Z,101488.16
2019-06-01T13:03:24.479Z,101486.75
2019-06-01T13:05:52.931Z,101482.92
2019-06-01T13:08:21.375Z,101492.93
2019-06-01T13:10:50.045Z,101485.23
2019-06-01T13:13:18.506Z,101479.20
2019-06-01T13:15:47.455Z,101484.79
2019-06-01T13:18:15.879Z,101480.03
2019-06-01T13:20:45.389Z,101473.33
2019-06-01T13:23:14.031Z,101471.56
2019-06-01T13:25:43.626Z,101472.88
2019-06-01T13:28:12.079Z,101465.91
2019-06-01T13:30:40.506Z,101474.47
2019-06-01T13:33:08.962Z,101468.27
2019-06-01T13:35:37.397Z,101470.11
2019-06-01T13:38:12.389Z,101468.63
2019-06-01T13:40:36.089Z,101457.73
2019-06-01T13:43:06.819Z,101455.42
2019-06-01T13:45:35.253Z,101447.36
2019-06-01T13:48:04.089Z,101448.97
2019-06-01T13:50:32.876Z,101440.68
2019-06-01T13:53:01.284Z,101442.80
2019-06-01T13:55:29.942Z,101445.06
2019-06-01T13:57:58.323Z,101454.17
2019-06-01T14:00:30.637Z,101437.44
2019-06-01T14:02:57.698Z,101438.91
2019-06-01T14:05:26.638Z,101433.55
2019-06-01T14:07:55.782Z,101436.70
2019-06-01T14:10:24.313Z,101425.89
2019-06-01T14:12:53.503Z,101436.98
2019-06-01T14:15:22.041Z,101431.36
2019-06-01T14:17:50.636Z,101435.92
2019-06-01T14:20:19.112Z,101423.50
2019-06-01T14:22:47.740Z,101425.52
2019-06-01T14:25:16.848Z,101421.48
2019-06-01T14:27:46.066Z,101423.91
2019-06-01T14:30:16.487Z,101417.89
2019-06-01T14:32:46.133Z,101420.89
2019-06-01T14:35:14.811Z,101427.44
2019-06-01T14:37:43.139Z,101423.84
2019-06-01T14:40:11.659Z,101416.53
2019-06-01T14:42:40.122Z,101418.90
2019-06-01T14:45:09.057Z,101421.40
2019-06-01T14:47:37.538Z,101419.09
2019-06-01T14:50:07.819Z,101425.66
2019-06-01T14:52:36.470Z,101418.60
2019-06-01T14:55:09.395Z,101407.02
2019-06-01T14:57:37.855Z,101408.84
2019-06-01T15:00:08.859Z,101410.22
2019-06-01T15:02:37.290Z,101407.31
2019-06-01T15:05:09.079Z,101404.22
2019-06-01T15:07:37.812Z,101403.25
2019-06-01T15:10:09.988Z,101405.20
2019-06-01T15:12:38.527Z,101401.65
2019-06-01T15:15:08.765Z,101395.87
2019-06-01T15:17:37.298Z,101399.11
2019-06-01T15:20:09.886Z,101398.58
2019-06-01T15:22:38.457Z,101399.45
2019-06-01T15:25:07.501Z,101396.44
2019-06-01T15:27:36.036Z,101392.86
2019-06-01T15:30:06.895Z,101397.25
2019-06-01T15:32:35.294Z,101394.28
2019-06-01T15:35:04.800Z,101382.48
2019-06-01T15:37:33.215Z,101387.20
2019-06-01T15:40:02.969Z,101383.61
2019-06-01T15:42:31.660Z,101379.77
2019-06-01T15:45:00.043Z,101383.81
2019-06-01T15:47:28.582Z,101373.47
2019-06-01T15:49:58.037Z,101384.14
2019-06-01T15:52:26.620Z,101379.52
2019-06-01T15:54:56.174Z,101371.82
2019-06-01T15:57:24.607Z,101371.80
2019-06-01T15:59:54.203Z,101372.61
2019-06-01T16:02:23.035Z,101380.02
2019-06-01T16:04:52.835Z,101372.30
2019-06-01T16:07:21.327Z,101373.34
2019-06-01T16:09:49.811Z,101372.55
2019-06-01T16:12:18.274Z,101371.70
2019-06-01T16:14:46.731Z,101368.11
2019-06-01T16:17:15.528Z,101368.94
2019-06-01T16:19:44.319Z,101367.00
2019-06-01T16:22:12.793Z,101374.27
2019-06-01T16:24:43.062Z,101367.97
2019-06-01T16:27:11.576Z,101360.59
2019-06-01T16:29:40.014Z,101361.61
2019-06-01T16:32:08.455Z,101355.27
2019-06-01T16:34:36.977Z,101356.33
2019-06-01T16:37:05.504Z,101347.98
2019-06-01T16:39:34.027Z,101355.37
2019-06-01T16:42:03.875Z,101353.20
2019-06-01T16:44:32.545Z,101352.82
2019-06-01T16:47:02.830Z,101351.11
2019-06-01T16:49:31.191Z,101355.92
2019-06-01T16:52:01.293Z,101354.61
2019-06-01T16:54:30.047Z,101349.49
2019-06-01T16:56:58.477Z,101353.78
2019-06-01T16:59:27.200Z,101357.69
2019-06-01T17:01:56.493Z,101356.43
2019-06-01T17:04:25.143Z,101358.86
2019-06-01T17:06:53.654Z,101350.69
2019-06-01T17:09:22.220Z,101353.72
2019-06-01T17:11:50.702Z,101350.45
2019-06-01T17:14:19.243Z,101348.83
2019-06-01T17:16:47.694Z,101346.42
2019-06-01T17:19:16.492Z,101354.66
2019-06-01T17:21:45.060Z,101352.19
2019-06-01T17:24:13.610Z,101350.52
2019-06-01T17:26:42.178Z,101346.14
2019-06-01T17:29:11.050Z,101348.38
2019-06-01T17:31:53.605Z,101344.25
2019-06-01T17:34:09.812Z,101346.33
2019-06-01T17:36:38.576Z,101347.18
2019-06-01T17:39:08.162Z,101343.06
2019-06-01T17:41:36.695Z,101341.42
2019-06-01T17:44:06.583Z,101340.83
2019-06-01T17:46:43.289Z,101343.27
2019-06-01T17:49:06.192Z,101345.72
2019-06-01T17:51:34.720Z,101339.98
2019-06-01T17:54:05.006Z,101345.70
2019-06-01T17:56:33.619Z,101338.56
2019-06-01T17:59:03.291Z,101335.82
2019-06-01T18:01:31.811Z,101340.72
2019-06-01T18:04:01.591Z,101335.80
2019-06-01T18:06:30.260Z,101337.68
2019-06-01T18:08:58.751Z,101331.67
2019-06-01T18:11:27.148Z,101336.01
2019-06-01T18:13:56.010Z,101336.80
2019-06-01T18:16:24.534Z,101339.28
2019-06-01T18:18:53.003Z,101335.67
2019-06-01T18:21:21.874Z,101340.86
2019-06-01T18:23:50.417Z,101334.28
2019-06-01T18:26:18.983Z,101342.20
2019-06-01T18:28:47.501Z,101344.05
2019-06-01T18:31:16.209Z,101344.31
2019-06-01T18:33:44.994Z,101347.27
2019-06-01T18:36:13.775Z,101346.95
2019-06-01T18:38:42.318Z,101343.43
2019-06-01T18:41:18.343Z,101349.66
2019-06-01T18:43:41.359Z,101350.23
2019-06-01T18:46:10.169Z,101354.55
2019-06-01T18:48:38.880Z,101359.19
2019-06-01T18:51:08.177Z,101354.23
2019-06-01T18:53:36.839Z,101343.82
2019-06-01T18:56:06.039Z,101352.52
2019-06-01T18:58:34.572Z,101353.03
2019-06-01T19:01:04.385Z,101355.73
2019-06-01T19:03:32.831Z,101355.95
2019-06-01T19:06:01.722Z,101365.22
2019-06-01T19:08:30.216Z,101363.02
2019-06-01T19:10:58.749Z,101361.88
2019-06-01T19:13:27.221Z,101359.97
2019-06-01T19:15:58.224Z,101363.99
2019-06-01T19:18:26.746Z,101362.84
2019-06-01T19:20:55.488Z,101371.23
2019-06-01T19:23:24.028Z,101369.26
2019-06-01T19:25:52.586Z,101372.52
2019-06-01T19:28:21.191Z,101380.92
2019-06-01T19:30:49.723Z,101386.33
2019-06-01T19:33:19.463Z,101384.63
2019-06-01T19:35:48.939Z,101385.67
2019-06-01T19:38:18.730Z,101384.79
2019-06-01T19:40:47.585Z,101383.38
2019-06-01T19:43:16.049Z,101385.48
2019-06-01T19:45:44.590Z,101381.88
2019-06-01T19:48:14.509Z,101384.59
2019-06-01T19:50:43.263Z,101393.80
2019-06-01T19:53:12.673Z,101392.09
2019-06-01T19:55:41.274Z,101394.44
2019-06-01T19:58:10.152Z,101395.41
2019-06-01T20:00:38.696Z,101402.41
2019-06-01T20:03:07.302Z,101405.38
2019-06-01T20:05:36.046Z,101400.40
2019-06-01T20:08:05.049Z,101404.08
2019-06-01T20:10:33.547Z,101406.45
2019-06-01T20:13:02.026Z,101403.38
2019-06-01T20:15:30.479Z,101404.97
2019-06-01T20:17:58.901Z,101408.17
2019-06-01T20:20:27.343Z,101405.45
2019-06-01T20:22:56.078Z,101404.86
2019-06-01T20:25:24.926Z,101403.19
2019-06-01T20:27:53.820Z,101413.75
2019-06-01T20:30:22.715Z,101410.47
2019-06-01T20:32:51.403Z,101412.26
2019-06-01T20:35:20.289Z,101409.19
2019-06-01T20:37:49.093Z,101406.41
2019-06-01T20:40:18.427Z,101410.37
2019-06-01T20:42:47.219Z,101412.72
2019-06-01T20:45:16.722Z,101408.02
2019-06-01T20:47:45.513Z,101407.75
2019-06-01T20:50:15.022Z,101406.08
2019-06-01T20:52:43.570Z,101400.88
2019-06-01T20:55:12.850Z,101403.30
2019-06-01T20:57:41.466Z,101399.13
2019-06-01T21:00:10.313Z,101401.51
2019-06-01T21:02:39.357Z,101398.38
2019-06-01T21:05:08.539Z,101395.31
2019-06-01T21:07:37.089Z,101401.58
2019-06-01T21:10:10.818Z,101397.98
2019-06-01T21:12:45.298Z,101400.99
2019-06-01T21:15:09.955Z,101400.99
2019-06-01T21:17:38.529Z,101403.86
2019-06-01T21:20:07.885Z,101397.00
2019-06-01T21:22:36.437Z,101393.22
2019-06-01T21:25:06.966Z,101390.64
2019-06-01T21:27:35.416Z,101390.88
2019-06-01T21:30:08.274Z,101396.72
2019-06-01T21:32:36.780Z,101391.98
2019-06-01T21:35:06.121Z,101398.72
2019-06-01T21:37:34.523Z,101402.41
2019-06-01T21:40:03.200Z,101403.39
2019-06-01T21:42:31.715Z,101398.30
2019-06-01T21:45:00.170Z,101396.88
2019-06-01T21:47:28.806Z,101393.92
2019-06-01T21:49:57.261Z,101393.34
2019-06-01T21:52:26.397Z,101399.80
2019-06-01T21:54:54.965Z,101400.38
2019-06-01T21:57:24.596Z,101407.08
2019-06-01T21:59:53.146Z,101411.45
2019-06-01T22:02:23.042Z,101408.61
2019-06-01T22:04:51.611Z,101416.20
2019-06-01T22:07:21.156Z,101410.16
2019-06-01T22:09:49.732Z,101413.95
2019-06-01T22:12:21.359Z,101414.61
2019-06-01T22:14:49.921Z,101411.83
2019-06-01T22:17:20.219Z,101415.88
2019-06-01T22:19:48.654Z,101421.78
2019-06-01T22:22:17.858Z,101423.90
2019-06-01T22:24:46.299Z,101431.26
2019-06-01T22:27:14.666Z,101427.41
2019-06-01T22:29:43.207Z,101418.86
2019-06-01T22:32:11.652Z,101420.48
2019-06-01T22:34:40.405Z,101426.64
2019-06-01T22:37:09.005Z,101426.34
2019-06-01T22:39:37.393Z,101423.69
2019-06-01T22:42:05.898Z,101423.34
2019-06-01T22:44:34.393Z,101424.84
2019-06-01T22:47:02.776Z,101425.66
2019-06-01T22:49:31.148Z,101433.48
2019-06-01T22:51:59.575Z,101426.69
2019-06-01T22:54:29.280Z,101428.64
2019-06-01T22:56:57.939Z,101423.78
2019-06-01T22:59:26.810Z,101425.09
2019-06-01T23:01:55.258Z,101424.04
2019-06-01T23:04:24.956Z,101417.98
2019-06-01T23:06:53.594Z,101432.10
2019-06-01T23:09:23.015Z,101423.42
2019-06-01T23:11:51.581Z,101428.02
2019-06-01T23:14:21.336Z,101427.20
2019-06-01T23:16:49.955Z,101439.42
2019-06-01T23:19:18.389Z,101435.16
2019-06-01T23:21:46.877Z,101433.28
2019-06-01T23:24:15.471Z,101431.06
2019-06-01T23:26:44.042Z,101436.00
2019-06-01T23:29:12.428Z,101436.53
2019-06-01T23:31:40.896Z,101431.59
2019-06-01T23:34:09.320Z,101428.80
2019-06-01T23:36:38.111Z,101426.38
2019-06-01T23:39:07.433Z,101431.71
2019-06-01T23:41:35.952Z,101423.56
2019-06-01T23:44:12.007Z,101423.91
2019-06-01T23:46:34.632Z,101425.56
2019-06-01T23:49:03.071Z,101426.63
2019-06-01T23:51:32.057Z,101420.70
2019-06-01T23:54:00.875Z,101419.47
2019-06-01T23:56:29.770Z,101422.11
2019-06-01T23:58:58.349Z,101423.17
